Time;durP1;ratioP1;P1;durP2;ratioP2;P2;SDS_P1;SDS_P2;PMS_P1;PMS_P2;Temp;Humidity;BMP_temperature;BMP_pressure;BME280_temperature;BME280_humidity;BME280_pressure;Samples;Min_cycle;Max_cycle;Signal;HPM_P1;HPM_P2
2021/12/09 00:00:14;;;;;;;17.07;13.40;;;4.70;89.70;;;;;;5063883;28;20457;-45
2021/12/09 00:02:41;;;;;;;18.83;14.00;;;4.80;89.60;;;;;;5067655;28;20454;-45
2021/12/09 00:05:10;;;;;;;17.67;12.77;;;4.70;89.40;;;;;;5048532;28;20446;-45
2021/12/09 00:07:37;;;;;;;20.37;14.40;;;4.70;89.40;;;;;;5050694;28;20452;-45
2021/12/09 00:10:08;;;;;;;18.03;11.37;;;4.70;89.30;;;;;;5047147;28;20461;-45
2021/12/09 00:12:36;;;;;;;16.80;11.60;;;4.80;89.10;;;;;;5065385;28;20532;-45
2021/12/09 00:15:04;;;;;;;17.20;11.10;;;4.80;88.60;;;;;;5067357;28;20814;-45
2021/12/09 00:17:31;;;;;;;17.20;10.77;;;4.80;88.70;;;;;;5065160;28;21035;-45
2021/12/09 00:19:57;;;;;;;20.83;12.20;;;4.70;88.60;;;;;;5064806;28;20448;-45
2021/12/09 00:22:25;;;;;;;16.20;11.93;;;4.80;88.20;;;;;;5065373;28;20469;-45
2021/12/09 00:24:52;;;;;;;13.87;11.20;;;4.80;87.80;;;;;;5064279;28;20462;-45
2021/12/09 00:27:19;;;;;;;14.00;10.67;;;4.80;87.70;;;;;;5065090;28;20948;-45
2021/12/09 00:29:46;;;;;;;15.63;10.60;;;4.70;87.40;;;;;;5047150;28;20840;-45
2021/12/09 00:32:12;;;;;;;16.90;10.77;;;4.70;87.40;;;;;;5050028;28;20955;-45
2021/12/09 00:34:42;;;;;;;14.73;10.40;;;4.70;87.50;;;;;;5067342;28;20480;-45
2021/12/09 00:39:49;;;;;;;14.53;9.53;;;4.70;87.30;;;;;;5063523;28;20810;-45
2021/12/09 00:42:17;;;;;;;13.97;10.53;;;4.60;87.30;;;;;;5064287;28;20517;-45
2021/12/09 00:44:44;;;;;;;16.17;9.70;;;4.70;86.90;;;;;;5045445;28;20473;-45
2021/12/09 00:47:11;;;;;;;13.87;8.73;;;4.60;86.90;;;;;;5066330;28;21021;-45
2021/12/09 00:49:38;;;;;;;13.10;10.47;;;4.60;87.10;;;;;;5048043;28;20542;-45
2021/12/09 00:52:05;;;;;;;35.87;20.27;;;4.60;87.20;;;;;;5064658;28;20461;-45
2021/12/09 00:54:32;;;;;;;35.20;21.43;;;4.50;87.30;;;;;;5045448;28;20453;-45
2021/12/09 00:56:59;;;;;;;22.93;15.20;;;4.50;87.70;;;;;;5048397;28;20476;-45
2021/12/09 00:59:26;;;;;;;18.00;11.23;;;4.40;87.80;;;;;;5067724;28;20450;-45
2021/12/09 01:01:53;;;;;;;17.73;11.07;;;4.40;88.10;;;;;;5033221;28;20815;-45
2021/12/09 01:04:20;;;;;;;15.27;9.63;;;4.40;88.20;;;;;;5047881;28;20458;-45
2021/12/09 01:06:48;;;;;;;12.83;10.00;;;4.40;88.20;;;;;;5066851;28;20984;-45
2021/12/09 01:09:15;;;;;;;15.63;10.07;;;4.30;88.30;;;;;;5066473;28;20454;-45
2021/12/09 01:11:42;;;;;;;12.70;9.00;;;4.30;88.40;;;;;;5045687;28;20449;-45
2021/12/09 01:14:09;;;;;;;11.13;8.23;;;4.30;88.40;;;;;;5063924;28;20458;-45
2021/12/09 01:16:36;;;;;;;14.43;9.07;;;4.30;88.50;;;;;;5065287;28;20449;-45
2021/12/09 01:19:04;;;;;;;13.53;9.07;;;4.30;88.30;;;;;;5049222;28;20491;-45
2021/12/09 01:21:31;;;;;;;11.67;8.13;;;4.30;88.30;;;;;;5047284;28;20785;-45
2021/12/09 01:23:58;;;;;;;15.07;9.13;;;4.30;88.30;;;;;;5066383;28;20458;-45
2021/12/09 01:26:26;;;;;;;10.13;7.67;;;4.40;88.20;;;;;;5065085;28;20939;-45
2021/12/09 01:28:58;;;;;;;13.07;8.50;;;4.40;88.10;;;;;;5066512;28;20454;-45
2021/12/09 01:31:30;;;;;;;11.90;8.50;;;4.40;87.90;;;;;;5045553;28;20489;-45
2021/12/09 01:34:01;;;;;;;10.37;8.80;;;4.30;87.80;;;;;;5045913;28;20946;-45
2021/12/09 01:36:31;;;;;;;10.30;8.47;;;4.30;87.70;;;;;;5065276;28;20452;-45
2021/12/09 01:38:58;;;;;;;12.53;8.27;;;4.30;87.60;;;;;;5047922;28;20481;-45
2021/12/09 01:41:25;;;;;;;10.93;7.50;;;4.20;87.70;;;;;;5067764;28;20452;-45
2021/12/09 01:43:54;;;;;;;14.73;7.30;;;4.20;87.70;;;;;;5066046;28;20450;-45
2021/12/09 01:46:20;;;;;;;9.87;7.30;;;4.20;87.80;;;;;;5063185;28;20456;-45
2021/12/09 01:48:49;;;;;;;12.23;8.30;;;4.10;87.80;;;;;;5067139;28;20527;-45
2021/12/09 01:51:17;;;;;;;13.17;7.50;;;4.10;87.80;;;;;;5052053;28;20464;-45
2021/12/09 01:53:45;;;;;;;12.53;8.23;;;4.00;87.80;;;;;;5047792;28;20811;-45
2021/12/09 01:56:20;;;;;;;12.37;7.80;;;4.10;87.40;;;;;;5032342;28;20450;-45
2021/12/09 01:58:56;;;;;;;12.57;8.37;;;4.00;87.20;;;;;;5063838;28;20478;-45
2021/12/09 02:01:24;;;;;;;11.63;7.13;;;4.00;87.30;;;;;;5016029;28;21132;-45
2021/12/09 02:03:51;;;;;;;11.70;8.00;;;4.00;87.30;;;;;;5067895;28;20462;-45
2021/12/09 02:06:19;;;;;;;16.40;8.40;;;3.90;87.20;;;;;;5029102;28;20450;-45
2021/12/09 02:08:46;;;;;;;11.43;7.50;;;3.90;87.20;;;;;;5068598;28;20461;-45
2021/12/09 02:11:14;;;;;;;10.60;6.90;;;3.90;87.10;;;;;;5066231;28;20541;-45
2021/12/09 02:13:42;;;;;;;9.77;7.07;;;3.90;87.20;;;;;;5053596;28;20485;-45
2021/12/09 02:16:09;;;;;;;13.53;7.80;;;3.90;87.20;;;;;;5059881;28;20466;-45
2021/12/09 02:18:36;;;;;;;13.10;8.20;;;3.80;87.20;;;;;;5066704;28;20920;-45
2021/12/09 02:21:16;;;;;;;14.33;8.00;;;3.80;87.20;;;;;;5068432;28;20458;-45
2021/12/09 02:23:49;;;;;;;11.20;7.67;;;3.80;87.20;;;;;;5063834;28;20466;-45
2021/12/09 02:26:18;;;;;;;15.73;8.07;;;3.80;87.00;;;;;;5048966;28;20465;-45
2021/12/09 02:28:46;;;;;;;10.20;7.20;;;3.70;87.10;;;;;;5070022;28;20970;-46
2021/12/09 02:31:13;;;;;;;9.73;6.93;;;3.70;87.00;;;;;;5045434;28;20497;-45
2021/12/09 02:33:40;;;;;;;9.40;7.30;;;3.70;86.90;;;;;;5046850;28;20492;-45
2021/12/09 02:36:07;;;;;;;10.70;7.77;;;3.70;86.70;;;;;;5046464;28;20465;-45
2021/12/09 02:38:41;;;;;;;8.97;7.50;;;3.70;86.50;;;;;;5048157;28;20507;-45
2021/12/09 02:41:16;;;;;;;8.63;6.03;;;3.70;86.60;;;;;;5048982;28;20456;-45
2021/12/09 02:43:50;;;;;;;9.03;5.40;;;3.60;86.60;;;;;;5067150;28;20445;-45
2021/12/09 02:46:18;;;;;;;8.87;6.00;;;3.60;86.70;;;;;;5046174;28;20947;-45
2021/12/09 02:48:45;;;;;;;10.20;6.93;;;3.60;86.60;;;;;;5061543;28;20466;-45
2021/12/09 02:51:12;;;;;;;7.73;5.33;;;3.50;86.80;;;;;;5064559;28;20466;-45
2021/12/09 02:53:40;;;;;;;12.03;6.77;;;3.50;86.80;;;;;;5048017;28;20830;-45
2021/12/09 02:56:07;;;;;;;9.17;6.23;;;3.50;86.90;;;;;;5048065;28;20546;-45
2021/12/09 02:58:34;;;;;;;11.40;5.50;;;3.40;86.80;;;;;;5048313;28;20487;-45
2021/12/09 03:01:33;;;;;;;7.33;5.73;;;3.40;86.90;;;;;;5045917;28;20537;-45
2021/12/09 03:04:02;;;;;;;12.40;6.03;;;3.40;86.80;;;;;;5051748;28;20458;-45
2021/12/09 03:06:33;;;;;;;8.10;6.13;;;3.40;86.60;;;;;;5068326;28;20458;-45
2021/12/09 03:09:03;;;;;;;7.57;5.83;;;3.40;86.70;;;;;;5063259;28;20487;-45
2021/12/09 03:11:30;;;;;;;8.97;6.30;;;3.40;86.70;;;;;;5065890;28;20453;-45
2021/12/09 03:13:58;;;;;;;6.40;5.60;;;3.30;86.80;;;;;;5067187;28;20509;-45
2021/12/09 03:16:25;;;;;;;10.80;5.57;;;3.30;87.10;;;;;;5047207;28;20469;-45
2021/12/09 03:18:54;;;;;;;10.17;6.33;;;3.30;87.20;;;;;;5068292;28;20484;-45
2021/12/09 03:21:28;;;;;;;10.70;5.97;;;3.20;87.30;;;;;;5047667;28;20491;-45
2021/12/09 03:23:56;;;;;;;6.90;5.67;;;3.30;87.40;;;;;;5032421;28;20823;-46
2021/12/09 03:26:29;;;;;;;8.07;6.03;;;3.30;87.50;;;;;;5063939;28;20457;-45
2021/12/09 03:28:59;;;;;;;8.93;5.63;;;3.30;87.70;;;;;;5065360;28;20627;-45
2021/12/09 03:31:27;;;;;;;8.53;7.17;;;3.30;87.80;;;;;;5064093;28;20848;-45
2021/12/09 03:33:54;;;;;;;7.47;6.67;;;3.30;87.90;;;;;;5065767;28;20465;-45
2021/12/09 03:36:21;;;;;;;10.17;7.00;;;3.40;87.90;;;;;;5036711;28;20818;-45
2021/12/09 03:38:49;;;;;;;11.53;6.50;;;3.40;87.90;;;;;;5066502;28;20485;-45
2021/12/09 03:41:15;;;;;;;9.30;6.80;;;3.40;88.00;;;;;;5063850;28;20454;-45
2021/12/09 03:43:42;;;;;;;9.93;6.00;;;3.40;88.00;;;;;;5046819;28;20742;-45
2021/12/09 03:46:09;;;;;;;14.63;10.00;;;3.40;88.00;;;;;;5058499;28;20464;-45
2021/12/09 03:48:36;;;;;;;19.60;10.50;;;3.40;88.20;;;;;;5063902;28;20469;-45
2021/12/09 03:51:03;;;;;;;13.30;9.37;;;3.40;88.30;;;;;;5051237;28;20522;-45
2021/12/09 03:53:30;;;;;;;10.20;7.90;;;3.40;88.40;;;;;;5062737;28;20453;-45
2021/12/09 03:55:56;;;;;;;12.17;8.27;;;3.40;88.50;;;;;;5067576;28;20957;-46
2021/12/09 03:58:24;;;;;;;11.87;8.10;;;3.50;88.50;;;;;;5045327;28;20578;-46
2021/12/09 04:00:51;;;;;;;10.17;6.67;;;3.50;88.60;;;;;;5026615;28;20471;-46
2021/12/09 04:03:19;;;;;;;10.77;7.03;;;3.50;88.60;;;;;;5064241;28;20473;-46
2021/12/09 04:05:46;;;;;;;11.50;7.70;;;3.60;88.60;;;;;;5066147;28;20558;-46
2021/12/09 04:08:15;;;;;;;11.10;6.37;;;3.60;88.60;;;;;;5048548;28;20461;-46
2021/12/09 04:10:42;;;;;;;8.43;6.40;;;3.60;88.40;;;;;;5044894;28;20524;-46
2021/12/09 04:13:09;;;;;;;7.83;6.27;;;3.60;88.30;;;;;;5035608;28;20468;-46
2021/12/09 04:15:37;;;;;;;9.77;6.17;;;3.70;88.40;;;;;;5065262;28;20472;-46
2021/12/09 04:18:04;;;;;;;9.03;5.63;;;3.70;88.50;;;;;;5057936;28;20584;-46
2021/12/09 04:20:31;;;;;;;8.60;5.60;;;3.70;88.50;;;;;;5061831;28;20812;-46
2021/12/09 04:22:58;;;;;;;10.90;7.20;;;3.70;88.50;;;;;;5059314;28;20453;-46
2021/12/09 04:25:26;;;;;;;7.00;6.30;;;3.70;88.50;;;;;;5065464;28;21635;-46
2021/12/09 04:27:55;;;;;;;6.43;5.03;;;3.70;88.50;;;;;;5030400;28;20450;-46
2021/12/09 04:30:23;;;;;;;11.20;5.23;;;3.70;88.50;;;;;;5046650;28;20473;-46
2021/12/09 04:32:52;;;;;;;10.03;6.53;;;3.80;88.30;;;;;;5065123;28;20898;-46
2021/12/09 04:35:21;;;;;;;9.07;5.93;;;3.70;88.20;;;;;;5061306;28;20563;-46
2021/12/09 04:37:48;;;;;;;8.10;5.03;;;3.70;88.00;;;;;;5065022;28;20461;-46
2021/12/09 04:40:17;;;;;;;8.57;5.73;;;3.70;88.00;;;;;;5046453;28;20851;-46
2021/12/09 04:42:44;;;;;;;8.10;5.90;;;3.70;87.80;;;;;;5061801;28;20461;-46
2021/12/09 04:45:12;;;;;;;8.40;5.10;;;3.60;87.90;;;;;;5063382;28;20469;-46
2021/12/09 04:47:40;;;;;;;9.43;6.70;;;3.60;87.90;;;;;;5061923;28;20449;-46
2021/12/09 04:50:09;;;;;;;8.20;5.93;;;3.60;87.80;;;;;;5065657;28;21027;-46
2021/12/09 04:52:36;;;;;;;8.50;6.43;;;3.60;87.80;;;;;;5043016;28;20457;-46
2021/12/09 04:55:06;;;;;;;7.10;5.30;;;3.60;87.80;;;;;;5052645;28;20461;-46
2021/12/09 04:57:34;;;;;;;9.27;6.77;;;3.60;87.80;;;;;;5047285;28;20461;-46
2021/12/09 05:00:03;;;;;;;8.23;5.70;;;3.60;88.00;;;;;;5048349;28;20570;-46
2021/12/09 05:05:16;;;;;;;7.10;5.53;;;3.60;87.70;;;;;;5062654;28;20515;-46
2021/12/09 05:07:43;;;;;;;6.70;5.63;;;3.60;87.80;;;;;;5063900;28;20446;-46
2021/12/09 05:10:10;;;;;;;6.60;6.00;;;3.60;87.80;;;;;;5061751;28;20470;-46
2021/12/09 05:12:37;;;;;;;7.37;5.20;;;3.60;87.70;;;;;;5024858;28;20954;-46
2021/12/09 05:15:09;;;;;;;11.10;5.53;;;3.60;87.80;;;;;;5047864;28;20527;-46
2021/12/09 05:17:36;;;;;;;8.53;5.87;;;3.60;88.00;;;;;;5062954;28;20480;-46
2021/12/09 05:20:04;;;;;;;8.90;6.83;;;3.60;88.20;;;;;;5047391;28;20881;-46
2021/12/09 05:22:31;;;;;;;10.53;6.07;;;3.60;88.00;;;;;;5032414;28;20959;-46
2021/12/09 05:24:58;;;;;;;8.10;6.13;;;3.50;88.20;;;;;;5051260;28;20461;-46
2021/12/09 05:27:25;;;;;;;12.47;7.40;;;3.50;88.30;;;;;;5043581;28;20457;-46
2021/12/09 05:30:04;;;;;;;7.80;5.50;;;3.50;88.40;;;;;;5048270;28;20478;-46
2021/12/09 05:32:32;;;;;;;7.47;5.40;;;3.50;88.50;;;;;;5043801;28;21055;-46
2021/12/09 05:34:59;;;;;;;8.20;5.53;;;3.50;88.50;;;;;;5052443;28;20468;-46
2021/12/09 05:37:27;;;;;;;5.40;4.90;;;3.50;88.50;;;;;;5051044;28;20473;-46
2021/12/09 05:39:56;;;;;;;8.70;6.07;;;3.50;88.60;;;;;;5068672;28;20963;-46
2021/12/09 05:42:28;;;;;;;5.80;5.20;;;3.50;88.50;;;;;;5051208;28;20483;-46
2021/12/09 05:44:57;;;;;;;5.80;5.20;;;3.50;88.50;;;;;;5065245;28;20457;-46
2021/12/09 05:47:24;;;;;;;6.17;5.43;;;3.50;88.40;;;;;;5049652;28;20546;-46
2021/12/09 05:49:53;;;;;;;5.97;4.90;;;3.50;88.40;;;;;;5068939;28;20458;-46
2021/12/09 05:52:19;;;;;;;9.40;5.30;;;3.60;88.30;;;;;;5067094;28;20804;-46
2021/12/09 05:54:47;;;;;;;10.20;6.70;;;3.60;88.00;;;;;;5049329;28;21735;-46
2021/12/09 05:57:14;;;;;;;11.37;7.60;;;3.50;88.20;;;;;;5065921;28;20461;-46
2021/12/09 05:59:42;;;;;;;11.07;7.23;;;3.50;88.20;;;;;;5066988;28;20485;-46
2021/12/09 06:02:10;;;;;;;7.60;6.00;;;3.50;88.20;;;;;;5066211;28;20450;-46
2021/12/09 06:04:38;;;;;;;8.90;5.97;;;3.50;87.90;;;;;;5071338;28;20988;-46
2021/12/09 06:07:05;;;;;;;7.67;6.27;;;3.50;87.70;;;;;;5067825;28;20699;-46
2021/12/09 06:09:33;;;;;;;8.83;6.63;;;3.40;87.70;;;;;;5050042;28;20449;-46
2021/12/09 06:12:00;;;;;;;8.77;6.00;;;3.40;87.70;;;;;;5051466;28;20457;-46
2021/12/09 06:14:27;;;;;;;6.23;5.43;;;3.40;87.70;;;;;;5068193;28;20962;-46
2021/12/09 06:16:53;;;;;;;7.90;6.97;;;3.40;87.90;;;;;;5049150;28;20484;-46
2021/12/09 06:19:21;;;;;;;8.00;6.30;;;3.40;87.90;;;;;;5046787;28;20484;-46
2021/12/09 06:21:49;;;;;;;9.30;6.67;;;3.40;87.90;;;;;;5069760;28;20469;-46
2021/12/09 06:24:21;;;;;;;7.40;6.50;;;3.40;87.90;;;;;;5068460;28;20885;-46
2021/12/09 06:26:48;;;;;;;8.30;7.50;;;3.40;88.10;;;;;;5051026;28;20464;-46
2021/12/09 06:29:14;;;;;;;8.57;7.10;;;3.40;88.00;;;;;;5071258;28;20456;-46
2021/12/09 06:31:41;;;;;;;10.10;7.40;;;3.40;87.90;;;;;;5050250;28;20489;-46
2021/12/09 06:34:11;;;;;;;7.70;6.90;;;3.40;88.10;;;;;;5068865;28;20472;-46
2021/12/09 06:36:39;;;;;;;7.97;7.17;;;3.40;88.20;;;;;;5065306;28;20465;-46
2021/12/09 06:39:06;;;;;;;8.83;7.70;;;3.40;88.20;;;;;;5033008;28;20494;-46
2021/12/09 06:41:33;;;;;;;11.70;8.23;;;3.40;88.10;;;;;;5067621;28;20473;-46
2021/12/09 06:44:00;;;;;;;11.07;8.50;;;3.30;88.20;;;;;;5065886;28;20529;-46
2021/12/09 06:46:27;;;;;;;8.60;7.60;;;3.30;88.20;;;;;;5066341;28;20792;-46
2021/12/09 06:48:54;;;;;;;9.27;7.33;;;3.30;88.20;;;;;;5067001;28;21065;-46
2021/12/09 06:51:21;;;;;;;8.77;7.80;;;3.20;88.20;;;;;;5063235;28;20465;-46
2021/12/09 06:53:48;;;;;;;7.73;6.77;;;3.20;88.10;;;;;;5066010;28;20458;-46
2021/12/09 06:56:14;;;;;;;8.37;6.53;;;3.20;88.10;;;;;;5066078;28;20470;-46
2021/12/09 06:58:41;;;;;;;10.97;7.93;;;3.20;87.70;;;;;;5047133;28;20512;-46
2021/12/09 07:01:08;;;;;;;8.57;7.30;;;3.20;87.70;;;;;;5066971;28;20522;-46
2021/12/09 07:03:38;;;;;;;8.63;7.60;;;3.20;87.40;;;;;;5067482;28;20592;-46
2021/12/09 07:06:06;;;;;;;11.53;7.87;;;3.20;87.20;;;;;;5067506;28;20469;-46
2021/12/09 07:08:36;;;;;;;10.83;7.30;;;3.20;87.20;;;;;;5068253;28;20450;-46
2021/12/09 07:11:04;;;;;;;10.83;6.87;;;3.20;87.10;;;;;;5066320;28;20800;-46
2021/12/09 07:13:31;;;;;;;7.37;6.23;;;3.10;87.40;;;;;;5045617;28;20961;-46
2021/12/09 07:15:58;;;;;;;6.30;5.70;;;3.10;87.50;;;;;;5066382;28;20955;-46
2021/12/09 07:18:25;;;;;;;6.13;5.20;;;3.20;87.30;;;;;;5064045;28;20441;-46
2021/12/09 07:20:53;;;;;;;6.30;5.50;;;3.20;87.40;;;;;;5064394;28;20509;-46
2021/12/09 07:23:20;;;;;;;9.20;6.17;;;3.10;87.50;;;;;;5067952;28;20520;-46
2021/12/09 07:25:47;;;;;;;7.07;5.30;;;3.10;87.60;;;;;;5067386;28;20826;-46
2021/12/09 07:28:14;;;;;;;8.80;5.40;;;3.10;87.80;;;;;;5069469;28;20790;-46
2021/12/09 07:30:42;;;;;;;7.40;5.83;;;3.20;87.80;;;;;;5064124;28;20490;-46
2021/12/09 07:33:09;;;;;;;7.07;5.30;;;3.20;87.70;;;;;;5065532;28;20475;-46
2021/12/09 07:35:36;;;;;;;7.47;5.20;;;3.30;87.50;;;;;;5068800;28;20467;-46
2021/12/09 07:38:04;;;;;;;8.53;4.80;;;3.30;87.30;;;;;;5065702;28;20462;-46
2021/12/09 07:40:32;;;;;;;6.67;4.97;;;3.30;87.30;;;;;;5065439;28;20834;-46
2021/12/09 07:42:59;;;;;;;7.63;5.77;;;3.30;87.60;;;;;;5065899;28;20450;-46
2021/12/09 07:45:28;;;;;;;10.00;5.20;;;3.40;87.50;;;;;;5065906;28;20450;-46
2021/12/09 07:47:55;;;;;;;13.93;8.80;;;3.40;87.40;;;;;;5063658;28;20460;-46
2021/12/09 07:50:24;;;;;;;8.30;5.83;;;3.40;87.50;;;;;;5046819;28;21443;-46
2021/12/09 07:52:52;;;;;;;6.93;5.30;;;3.40;87.70;;;;;;5048511;28;20462;-46
2021/12/09 07:55:21;;;;;;;6.93;5.07;;;3.40;87.80;;;;;;5064856;28;20478;-46
2021/12/09 07:57:48;;;;;;;9.00;5.97;;;3.40;87.90;;;;;;5066931;28;20465;-46
2021/12/09 08:00:18;;;;;;;11.23;5.90;;;3.40;87.90;;;;;;5064285;28;20481;-46
2021/12/09 08:02:47;;;;;;;9.07;5.00;;;3.40;88.00;;;;;;5044575;28;20489;-46
2021/12/09 08:05:16;;;;;;;10.53;6.50;;;3.40;88.00;;;;;;5044489;28;20481;-46
2021/12/09 08:07:43;;;;;;;7.97;5.00;;;3.40;87.80;;;;;;5066449;28;20980;-46
2021/12/09 08:10:12;;;;;;;7.47;5.77;;;3.40;87.60;;;;;;5065147;28;20476;-45
2021/12/09 08:12:39;;;;;;;6.53;5.87;;;3.40;87.50;;;;;;5062626;28;20570;-45
2021/12/09 08:15:26;;;;;;;10.67;6.00;;;3.40;87.40;;;;;;5064104;28;20457;-46
2021/12/09 08:18:14;;;;;;;7.40;5.30;;;3.40;87.50;;;;;;5067798;28;20532;-46
2021/12/09 08:20:41;;;;;;;9.93;5.67;;;3.40;87.40;;;;;;5061482;28;20525;-46
2021/12/09 08:23:08;;;;;;;9.03;6.30;;;3.40;87.30;;;;;;5064506;28;20464;-46
2021/12/09 08:25:35;;;;;;;6.43;5.37;;;3.40;87.10;;;;;;5066016;28;20438;-46
2021/12/09 08:28:02;;;;;;;11.50;5.70;;;3.40;87.40;;;;;;5044366;28;20462;-46
2021/12/09 08:30:29;;;;;;;7.33;5.10;;;3.40;87.40;;;;;;5045987;28;20473;-46
2021/12/09 08:33:17;;;;;;;7.80;5.30;;;3.40;87.50;;;;;;5065681;28;20837;-46
2021/12/09 08:35:46;;;;;;;7.53;5.43;;;3.40;87.70;;;;;;5064703;28;20552;-46
2021/12/09 08:38:13;;;;;;;5.80;5.07;;;3.50;87.70;;;;;;5067243;28;21020;-46
2021/12/09 08:40:42;;;;;;;7.67;5.20;;;3.50;87.30;;;;;;5046988;28;20486;-46
2021/12/09 08:43:10;;;;;;;8.93;5.80;;;3.50;87.50;;;;;;5046276;28;20460;-46
2021/12/09 08:45:37;;;;;;;5.40;4.50;;;3.50;87.50;;;;;;5046882;28;20441;-46
2021/12/09 08:48:04;;;;;;;7.73;4.90;;;3.60;87.40;;;;;;5066508;28;20451;-46
2021/12/09 08:50:33;;;;;;;6.40;4.90;;;3.70;87.20;;;;;;5062770;28;20549;-46
2021/12/09 08:53:07;;;;;;;8.43;4.70;;;3.70;86.80;;;;;;5063141;28;20549;-46
2021/12/09 08:55:35;;;;;;;6.60;4.30;;;3.70;86.50;;;;;;5040825;28;20535;-46
2021/12/09 08:58:03;;;;;;;9.50;4.10;;;3.70;86.20;;;;;;5067425;28;20822;-46
2021/12/09 09:00:32;;;;;;;6.70;5.20;;;3.80;86.20;;;;;;5064315;28;20847;-46
2021/12/09 09:02:59;;;;;;;5.03;4.23;;;3.70;86.20;;;;;;5048463;28;20468;-46
2021/12/09 09:05:27;;;;;;;6.30;4.77;;;3.70;86.80;;;;;;5066869;28;20450;-46
2021/12/09 09:07:55;;;;;;;5.73;3.83;;;3.80;86.80;;;;;;5067647;28;20449;-46
2021/12/09 09:10:24;;;;;;;6.57;4.33;;;3.80;86.80;;;;;;5033222;28;20455;-46
2021/12/09 09:12:52;;;;;;;7.77;4.87;;;3.80;86.30;;;;;;5067122;28;20460;-46
2021/12/09 09:15:21;;;;;;;11.63;4.63;;;3.90;86.30;;;;;;5051169;28;20451;-46
2021/12/09 09:17:49;;;;;;;4.87;4.00;;;3.90;85.80;;;;;;5052101;28;20954;-46
2021/12/09 09:20:18;;;;;;;4.77;4.13;;;4.00;86.20;;;;;;5051169;28;20481;-46
2021/12/09 09:22:45;;;;;;;4.77;3.90;;;4.00;85.90;;;;;;5052264;28;20960;-46
2021/12/09 09:25:17;;;;;;;7.80;4.70;;;4.10;85.30;;;;;;5050160;28;20454;-46
2021/12/09 09:27:45;;;;;;;3.90;3.53;;;4.10;85.50;;;;;;5050015;28;20461;-46
2021/12/09 09:30:14;;;;;;;5.80;3.90;;;4.10;85.40;;;;;;5047995;28;21013;-46
2021/12/09 09:32:42;;;;;;;4.07;3.40;;;4.10;85.50;;;;;;5050507;28;20442;-46
2021/12/09 09:35:09;;;;;;;7.23;3.83;;;4.10;85.70;;;;;;5048558;28;20466;-46
2021/12/09 09:37:37;;;;;;;5.20;3.53;;;4.10;85.50;;;;;;5070080;28;20449;-46
2021/12/09 09:40:09;;;;;;;5.90;4.00;;;4.20;85.30;;;;;;5034104;28;20576;-46
2021/12/09 09:45:12;;;;;;;3.33;2.97;;;4.20;85.20;;;;;;5065124;28;20872;-46
2021/12/09 09:47:38;;;;;;;4.60;3.10;;;4.20;84.80;;;;;;5062531;28;20465;-46
2021/12/09 09:50:08;;;;;;;4.80;2.90;;;4.20;84.50;;;;;;5066259;28;20468;-46
2021/12/09 09:52:35;;;;;;;6.50;3.40;;;4.20;85.00;;;;;;5066852;28;20458;-46
2021/12/09 09:55:07;;;;;;;4.17;3.17;;;4.20;85.10;;;;;;5065678;28;20966;-46
2021/12/09 09:57:33;;;;;;;8.97;3.20;;;4.30;85.60;;;;;;5050333;28;20453;-46
2021/12/09 10:00:00;;;;;;;5.00;3.67;;;4.30;84.80;;;;;;5049170;28;20487;-46
2021/12/09 10:02:27;;;;;;;6.07;3.70;;;4.40;84.60;;;;;;5066285;28;21021;-46
2021/12/09 10:05:02;;;;;;;6.87;3.90;;;4.40;84.20;;;;;;5049025;28;20454;-46
2021/12/09 10:07:30;;;;;;;5.90;4.73;;;4.50;84.40;;;;;;5034534;28;20468;-46
2021/12/09 10:09:58;;;;;;;5.67;4.00;;;4.50;84.30;;;;;;5050659;28;20965;-46
2021/12/09 10:12:25;;;;;;;6.03;4.27;;;4.50;84.20;;;;;;5070004;28;20453;-46
2021/12/09 10:14:54;;;;;;;5.03;4.00;;;4.60;84.10;;;;;;5069470;28;20851;-46
2021/12/09 10:17:28;;;;;;;8.20;4.50;;;4.60;83.70;;;;;;5052623;28;20468;-46
2021/12/09 10:20:11;;;;;;;5.07;3.23;;;4.70;83.80;;;;;;5050714;28;20489;-46
2021/12/09 10:22:38;;;;;;;8.63;4.50;;;4.70;83.30;;;;;;5065133;28;20953;-46
2021/12/09 10:25:23;;;;;;;5.10;3.90;;;4.70;83.90;;;;;;5050737;28;20464;-46
2021/12/09 10:28:00;;;;;;;9.50;4.67;;;4.80;83.80;;;;;;5051674;28;20972;-46
2021/12/09 10:30:28;;;;;;;8.87;4.07;;;4.90;83.20;;;;;;5050466;28;20469;-45
2021/12/09 10:33:00;;;;;;;7.53;4.17;;;4.90;83.20;;;;;;5048372;28;20450;-46
2021/12/09 10:35:27;;;;;;;4.30;3.03;;;5.00;83.10;;;;;;5067466;28;20442;-46
2021/12/09 10:37:54;;;;;;;6.03;3.87;;;5.00;82.70;;;;;;5066874;28;20770;-46
2021/12/09 10:40:25;;;;;;;6.87;4.50;;;5.10;82.40;;;;;;5067585;28;21085;-46
2021/12/09 10:42:55;;;;;;;5.87;3.67;;;5.10;81.60;;;;;;5065958;28;21112;-46
2021/12/09 10:45:34;;;;;;;5.77;4.43;;;5.10;81.80;;;;;;5069491;28;20449;-46
2021/12/09 10:50:47;;;;;;;5.80;4.40;;;5.20;81.70;;;;;;5067063;28;20465;-46
2021/12/09 10:56:01;;;;;;;9.30;4.00;;;5.30;81.70;;;;;;5066625;28;20461;-46
2021/12/09 10:58:31;;;;;;;4.80;4.30;;;5.30;81.60;;;;;;5049195;28;20457;-46
2021/12/09 11:01:13;;;;;;;8.93;4.73;;;5.40;81.60;;;;;;5071213;28;20508;-46
2021/12/09 11:03:43;;;;;;;6.53;4.53;;;5.40;81.90;;;;;;5050885;28;20476;-46
2021/12/09 11:06:11;;;;;;;7.93;4.77;;;5.50;81.60;;;;;;5050223;28;20446;-46
2021/12/09 11:08:44;;;;;;;8.17;4.37;;;5.50;81.30;;;;;;5069724;28;20966;-46
2021/12/09 11:11:30;;;;;;;7.80;4.87;;;5.50;81.50;;;;;;5068547;28;20977;-46
2021/12/09 11:14:05;;;;;;;7.73;4.17;;;5.50;81.90;;;;;;5064663;28;20462;-46
2021/12/09 11:16:39;;;;;;;9.67;6.67;;;5.60;80.80;;;;;;5057038;28;20855;-46
2021/12/09 11:21:59;;;;;;;7.90;3.93;;;5.70;80.80;;;;;;5062589;28;20449;-46
2021/12/09 11:24:36;;;;;;;7.40;4.13;;;5.70;79.60;;;;;;5043110;28;20499;-46
2021/12/09 11:27:09;;;;;;;5.03;3.67;;;5.70;80.40;;;;;;5068934;28;20445;-46
2021/12/09 11:29:36;;;;;;;6.13;4.13;;;5.60;80.40;;;;;;5032947;28;20445;-46
2021/12/09 11:32:36;;;;;;;7.60;4.57;;;5.60;80.10;;;;;;5066655;28;20491;-46
2021/12/09 11:35:19;;;;;;;5.43;3.20;;;5.60;80.40;;;;;;5046120;28;20823;-46
2021/12/09 11:37:56;;;;;;;;;;;;;;;;;;;;;
2021/12/09 11:40:35;;;;;;;8.00;3.30;;;5.60;80.60;;;;;;5062603;28;20490;-46
2021/12/09 11:43:04;;;;;;;4.47;4.07;;;5.60;80.50;;;;;;5061077;28;20470;-46
2021/12/09 11:45:35;;;;;;;3.13;2.50;;;5.60;80.40;;;;;;5066067;28;20892;-46
2021/12/09 11:48:04;;;;;;;3.47;2.83;;;5.70;79.10;;;;;;5059537;28;20457;-46
2021/12/09 11:50:38;;;;;;;3.60;3.20;;;5.70;78.90;;;;;;5069581;28;20453;-46
2021/12/09 11:53:07;;;;;;;4.60;4.03;;;5.60;79.20;;;;;;5064900;28;20457;-46
2021/12/09 11:55:40;;;;;;;3.87;3.00;;;5.60;79.40;;;;;;5065229;28;20473;-46
2021/12/09 11:58:19;;;;;;;8.90;3.80;;;5.60;79.40;;;;;;5068106;28;20480;-46
2021/12/09 12:40:37;;;;;;;8.60;3.03;;;5.60;80.40;;;;;;5067128;28;20823;-46
2021/12/09 12:51:16;;;;;;;7.83;3.73;;;5.50;80.20;;;;;;5065616;28;20892;-46
2021/12/09 12:53:45;;;;;;;11.10;4.57;;;5.50;80.50;;;;;;5064078;28;20453;-46
2021/12/09 12:56:32;;;;;;;5.20;3.67;;;5.50;80.50;;;;;;5045290;28;20449;-46
2021/12/09 12:59:09;;;;;;;4.53;3.33;;;5.60;79.90;;;;;;5065415;28;20454;-46
2021/12/09 13:01:41;;;;;;;4.13;3.50;;;5.50;80.00;;;;;;5064272;28;20982;-46
2021/12/09 13:07:38;;;;;;;7.27;3.47;;;5.60;79.70;;;;;;5063683;28;20454;-46
2021/12/09 13:13:27;;;;;;;6.10;4.57;;;5.60;79.10;;;;;;5064560;28;20461;-46
2021/12/09 13:16:34;;;;;;;;;;;;;;;;;;;;;
2021/12/09 13:21:53;;;;;;;6.43;3.67;;;5.60;78.50;;;;;;5065262;28;20491;-46
2021/12/09 13:27:02;;;;;;;7.70;3.40;;;5.60;78.80;;;;;;5065746;28;20458;-46
2021/12/09 13:29:38;;;;;;;6.07;4.30;;;5.60;78.70;;;;;;5066323;28;20450;-46
2021/12/09 13:32:48;;;;;;;5.33;4.57;;;5.70;78.90;;;;;;5062990;28;20457;-46
2021/12/09 13:35:15;;;;;;;10.20;6.20;;;5.70;78.70;;;;;;5061598;28;20944;-46
2021/12/09 13:40:27;;;;;;;6.90;4.80;;;5.70;79.20;;;;;;5065975;28;20532;-46
2021/12/09 13:48:45;;;;;;;11.27;6.60;;;5.70;79.40;;;;;;5028218;28;20821;-44
2021/12/09 13:51:51;;;;;;;10.80;6.63;;;5.70;79.70;;;;;;5044583;28;20483;-44
2021/12/09 13:54:23;;;;;;;8.60;6.50;;;5.60;80.00;;;;;;5065726;28;20479;-44
2021/12/09 13:57:06;;;;;;;10.07;5.97;;;5.70;80.00;;;;;;5066281;28;20691;-46
2021/12/09 13:59:36;;;;;;;7.17;6.00;;;5.70;80.00;;;;;;5064654;28;20467;-45
2021/12/09 14:02:22;;;;;;;9.87;5.90;;;5.70;80.30;;;;;;5047555;28;21021;-45
2021/12/09 14:04:51;;;;;;;12.70;6.90;;;5.80;79.60;;;;;;5044548;28;20496;-45
2021/12/09 14:07:31;;;;;;;8.40;5.53;;;5.80;79.40;;;;;;5067402;28;20472;-45
2021/12/09 14:10:01;;;;;;;8.97;5.53;;;5.70;79.60;;;;;;5049724;28;20457;-45
2021/12/09 14:12:33;;;;;;;10.80;6.03;;;5.70;80.10;;;;;;5047406;28;20460;-45
2021/12/09 14:15:06;;;;;;;8.80;6.07;;;5.80;80.10;;;;;;5048952;28;20471;-45
2021/12/09 14:17:36;;;;;;;7.60;5.30;;;5.80;79.80;;;;;;5066419;28;20473;-45
2021/12/09 14:20:06;;;;;;;8.97;5.37;;;5.70;80.10;;;;;;5046182;28;20470;-45
2021/12/09 14:22:38;;;;;;;7.60;4.83;;;5.70;80.40;;;;;;5045220;28;20481;-45
2021/12/09 14:25:13;;;;;;;10.30;5.90;;;5.80;79.90;;;;;;5044338;28;20461;-45
2021/12/09 14:27:41;;;;;;;14.40;6.80;;;5.70;80.20;;;;;;5067209;28;20812;-45
2021/12/09 14:30:10;;;;;;;9.47;5.70;;;5.70;80.70;;;;;;5067683;28;21030;-45
2021/12/09 14:32:43;;;;;;;8.50;5.30;;;5.80;79.80;;;;;;5063548;28;20468;-45